Главная страница
METAR-TAF:

METAR-TAF

Аэропорты :

Каяани, Финляндия

Каяни

широта: 64-17N, долгота: 027-41E, высота над уровнем моря: 143 м

Текущие метеонаблюдения

Эта сводка был подготовлена 32 минут назад, в 05:50 UTC
Ветер 6 Узел от западно-северо-западный, изменяющийся между западный и северно-северо-западный
Температура 12°C
Влажность 94%
Давление 1012 hPa
Видимость 10 км и более
Сплошная облачность на высоте 200 фута

METAR: EFKI 230550Z 30006KT 270V340 9999 OVC002 12/11 Q1012

Время: 09:22 (06:22 UTC)

Прогноз

Эта сводка был подготовлена 58 минут назад, в 05:24 UTC
Прогноз действительный с 23-го 06 UTC до 23-го 15 UTC
Ветер 6 Узел от северно-северо-западный
Видимость 10 км и более
Рассеянная облачность на высоте 600 фута
изменения
С 23-го 07 UTC до 23-го 09 UTC
Рассеянная облачность на высоте 1500 фута

TAF: EFKI 230524Z 2306/2315 33006KT 9999 BKN006 BECMG 2307/2309 BKN015

Метеонаблюдения и прогнозы для более 4000 аэропортов (сводки METAR и TAF).

Имеющиеся станции представлены на карте желтыми и красными точками.

Чтобы увидеть название станции, наведите на нее мышь.

Затем щелкните, чтобы увидеть метеонаблюдения и метеопрогнозы.

Управление картой: чтобы увеличить масштаб, щелкните зеленые кнопки с черным крестиком; чтобы уменьшить масштаб, щелкните зеленую кнопку с тире; для просмотра соседних карт щелкайте зеленые стрелки.


METAR-TAF: